Etusivu
METAR-TAF:

METAR-TAF

Lentoasemat :

Sankt Moritz, Sveitsi

Leveyspiiri: 46-32-03N, Pituuspiiri: 9-53-03E, korkeus merenpinnasta: 1707 m

Tämänhetkinen sää

Tämä raportti tehtiin 14 minuuttia sitten, kello 15.50 UTC
Tuuli 7 kn etelästä/lounaasta, vaihdellen etelän ja lännen/lounaan välillä
Lämpötila 7°C
Kosteus 24%
Ilmanpaine 1028 hPa
Näkyvyys 10 km tai enemmän
ei pilviä alle 1500 m:ssä eikä cumulonimbus-pilviä

METAR: LSZS 211550Z 21007KT 170V240 CAVOK 07/M12 Q1028 RMK S

Aika: 17:04 (16:04 UTC)

Sääennuste

Tämä raportti tehtiin 1 tunti ja 39 minuuttia sitten, kello 14.25 UTC
Ennuste voimassa 21. päivästä klo 15 UTC - 21. päivään klo 24 UTC
Tuuli 3 kn eri suunnista
Näkyvyys 10 km tai enemmän
ei pilviä alle 1500 m:ssä eikä cumulonimbus-pilviä

TAF: LSZS 211425Z 2115/2124 VRB03KT CAVOK TX08/2115Z

Säähavainnot ja -ennusteet yli 4000 lentoasemalta (METAR- ja TAF-raportit).

Käytössä olevat sääasemat on merkitty karttaan keltaisilla ja punaisilla pisteillä.

Aseta hiiri pisteen päälle nähdäksesi sääaseman nimen.

Klikkaa sitten nähdäksesi säähavainnot ja -ennusteet.

Kartan vaihtaminen: klikkaa mustalla rastilla varustettuja vihreitä pisteitä, niin voit zoomata sisään; viivalla varustettua vihreää pistettä, niin voit zoomata ulos tai vihreitä nuolia, niin pääset viereisille kartoille.


METAR-TAF: